Yellowstone National Park, WY

11:50 PM MDT on May 25, 2015 (GMT -0600)
RAWS | | Change Station
CLOSE
Current Station
Personal Weather Station
Location: Cooke City, MT
Elevation: 8160 ft
Nearby Weather Stations

Elev 8160 ft 45.01 °N, 110.04 °W | Updated 33 minutes ago

Overcast
Overcast
39 °F
Feels Like 39 °F
N
0
Wind Variable Wind from North
Gusts 4.0 mph

Today
High -- | Low -- °F
--% Chance of Precip.
Yesterday
High -- | Low -- °F
Precip. -- in
5:43 AM 8:54 PM
First Quarter, 55% visible
Pressure 30.03 in
Visibility 10.0 miles
Clouds Few 3100 ft
Mostly Cloudy 8500 ft
Windchill 39 °F
Dew Point 38 °F
Humidity 95%
Rainfall in
Snow Depth Not available.
UV 0 out of 12
Pollen 4.00 out of 12
Air Quality Not available.
Flu Activity Sporadic
METAR KWYS 260530Z AUTO 00000KT 10SM FEW031 BKN085 05/04 A3003 RMK AO2

More Conditions Fewer Conditions

Pressure 30.03 in
Visibility 10.0 miles
Clouds Few 3100 ft
Mostly Cloudy 8500 ft
Windchill 39 °F
Dew Point 38 °F
Humidity 95%
Rainfall in
Snow Depth Not available.
UV 0 out of 12
Pollen 4.00 out of 12
Air Quality Not available.
Flu Activity Sporadic
METAR KWYS 260530Z AUTO 00000KT 10SM FEW031 BKN085 05/04 A3003 RMK AO2

More Conditions Fewer Conditions

10-Day Weather Forecast

Almanac

Astronomy

May. 25, 2015 Rise Set
Actual Time
Civil Twilight
Nautical Twilight
Astronomical Twilight
Moon
Length of Visible Light
Length of Day
Tomorrow will be .
, % of the Moon is Illuminated

Today's Extremes

State Highs State Lows

Community

WunderPhotos

Upload Photos

1,824,289 photos uploaded!

WunderBlogs® & News

Nearby

Air Quality

  Air Quality AQ Index Pollutant
Not available.

Snow Depth

Station Depth Elevation

Earthquake Activity

City Distance Mag. Time & Date
Minimum magnitude displayed is 2.5.

Coastal Water Temperatures

Place Temperature

Stations

Nearby Weather Stations

Station Location Temp. Windchill Dew Point Humidity Wind Precip. Elev Updated Type